createdAt,value
2023-03-17T00:00:05.475Z,59.83
2023-03-17T00:02:33.255Z,60.27
2023-03-17T00:04:54.878Z,59.94
2023-03-17T00:07:17.641Z,60.23
2023-03-17T00:09:39.210Z,60.07
2023-03-17T00:12:01.105Z,59.90
2023-03-17T00:14:22.944Z,60.00
2023-03-17T00:16:52.546Z,59.82
2023-03-17T00:19:17.810Z,59.68
2023-03-17T00:21:40.136Z,59.99
2023-03-17T00:24:02.120Z,59.76
2023-03-17T00:26:24.932Z,59.60
2023-03-17T00:28:47.509Z,59.53
2023-03-17T00:31:20.940Z,59.51
2023-03-17T00:33:45.252Z,59.46
2023-03-17T00:36:15.732Z,59.57
2023-03-17T00:38:37.538Z,59.64
2023-03-17T00:40:59.267Z,60.22
2023-03-17T00:43:20.910Z,60.15
2023-03-17T00:45:43.231Z,60.21
2023-03-17T00:48:17.303Z,60.29
2023-03-17T00:50:39.284Z,60.24
2023-03-17T00:53:01.309Z,60.52
2023-03-17T00:55:26.666Z,60.36
2023-03-17T00:57:49.959Z,60.33
2023-03-17T01:00:32.894Z,60.23
2023-03-17T01:02:57.259Z,60.24
2023-03-17T01:05:24.951Z,59.85
2023-03-17T01:07:52.887Z,60.01
2023-03-17T01:10:20.378Z,60.17
2023-03-17T01:12:43.066Z,60.36
2023-03-17T01:15:05.806Z,60.36
2023-03-17T01:17:27.759Z,60.55
2023-03-17T01:19:49.470Z,60.58
2023-03-17T01:22:11.738Z,60.23
2023-03-17T01:24:33.672Z,60.51
2023-03-17T01:26:55.287Z,60.58
2023-03-17T01:29:17.555Z,60.87
2023-03-17T01:31:39.414Z,61.00
2023-03-17T01:34:01.135Z,60.57
2023-03-17T01:36:22.822Z,61.16
2023-03-17T01:38:47.973Z,60.98
2023-03-17T01:41:10.458Z,60.79
2023-03-17T01:43:32.524Z,60.62
2023-03-17T01:46:31.972Z,60.69
2023-03-17T01:49:27.912Z,60.82
2023-03-17T01:52:02.115Z,61.15
2023-03-17T01:54:56.663Z,60.47
2023-03-17T01:57:25.413Z,60.91
2023-03-17T01:59:55.422Z,61.14
2023-03-17T02:02:25.702Z,61.11
2023-03-17T02:04:47.767Z,61.05
2023-03-17T02:07:11.260Z,60.75
2023-03-17T02:09:37.153Z,61.02
2023-03-17T02:12:02.645Z,60.86
2023-03-17T02:14:24.424Z,60.71
2023-03-17T02:16:46.496Z,60.90
2023-03-17T02:19:11.411Z,60.79
2023-03-17T02:21:39.028Z,60.53
2023-03-17T02:24:08.370Z,60.57
2023-03-17T02:26:35.298Z,60.46
2023-03-17T02:28:57.445Z,60.59
2023-03-17T02:31:19.912Z,60.99
2023-03-17T02:33:42.501Z,60.80
2023-03-17T02:36:04.815Z,60.84
2023-03-17T02:38:27.051Z,60.98
2023-03-17T02:40:49.000Z,60.71
2023-03-17T02:43:10.904Z,60.76
2023-03-17T02:45:32.529Z,60.77
2023-03-17T02:47:56.035Z,60.75
2023-03-17T02:50:23.217Z,60.43
2023-03-17T02:52:44.855Z,60.81
2023-03-17T02:55:08.320Z,60.84
2023-03-17T02:57:29.882Z,60.75
2023-03-17T02:59:52.273Z,60.60
2023-03-17T03:02:14.343Z,60.76
2023-03-17T03:04:36.034Z,60.43
2023-03-17T03:06:57.705Z,60.76
2023-03-17T03:09:20.823Z,60.82
2023-03-17T03:11:42.931Z,60.63
2023-03-17T03:14:05.553Z,60.56
2023-03-17T03:16:27.367Z,60.80
2023-03-17T03:18:48.959Z,60.93
2023-03-17T03:21:10.898Z,60.86
2023-03-17T03:23:32.670Z,60.68
2023-03-17T03:25:54.405Z,60.49
2023-03-17T03:28:16.148Z,60.96
2023-03-17T03:30:38.754Z,60.63
2023-03-17T03:33:00.679Z,60.88
2023-03-17T03:35:22.323Z,60.61
2023-03-17T03:37:44.047Z,60.91
2023-03-17T03:40:07.498Z,60.54
2023-03-17T03:42:29.148Z,60.95
2023-03-17T03:44:50.757Z,60.78
2023-03-17T03:47:13.992Z,60.37
2023-03-17T03:49:35.777Z,60.75
2023-03-17T03:51:57.500Z,60.29
2023-03-17T03:54:19.273Z,60.76
2023-03-17T03:56:40.963Z,60.85
2023-03-17T03:59:03.501Z,60.94
2023-03-17T04:01:25.189Z,60.83
2023-03-17T04:03:47.385Z,60.77
2023-03-17T04:06:09.107Z,60.94
2023-03-17T04:08:31.826Z,60.58
2023-03-17T04:10:53.464Z,60.84
2023-03-17T04:13:15.409Z,60.54
2023-03-17T04:15:37.524Z,61.10
2023-03-17T04:17:59.209Z,61.02
2023-03-17T04:20:21.165Z,60.85
2023-03-17T04:22:44.119Z,61.16
2023-03-17T04:25:06.502Z,61.25
2023-03-17T04:27:28.384Z,60.78
2023-03-17T04:29:50.078Z,60.96
2023-03-17T04:32:16.075Z,61.30
2023-03-17T04:34:37.702Z,61.57
2023-03-17T04:36:59.498Z,61.04
2023-03-17T04:39:21.584Z,61.46
2023-03-17T04:41:43.190Z,61.76
2023-03-17T04:44:05.956Z,61.45
2023-03-17T04:46:27.630Z,61.60
2023-03-17T04:48:49.309Z,61.44
2023-03-17T04:51:11.957Z,61.37
2023-03-17T04:53:34.969Z,62.00
2023-03-17T04:55:56.661Z,61.95
2023-03-17T04:58:30.114Z,62.06
2023-03-17T05:00:53.110Z,61.67
2023-03-17T05:03:26.308Z,61.85
2023-03-17T05:05:50.686Z,61.72
2023-03-17T05:08:12.747Z,62.25
2023-03-17T05:10:34.338Z,62.58
2023-03-17T05:12:56.131Z,62.23
2023-03-17T05:15:18.184Z,62.10
2023-03-17T05:17:39.822Z,61.84
2023-03-17T05:20:04.941Z,62.23
2023-03-17T05:22:27.138Z,62.55
2023-03-17T05:24:48.933Z,62.07
2023-03-17T05:27:10.711Z,62.02
2023-03-17T05:29:32.322Z,62.04
2023-03-17T05:31:54.721Z,61.78
2023-03-17T05:34:17.425Z,61.64
2023-03-17T05:36:39.032Z,62.32
2023-03-17T05:39:00.843Z,61.90
2023-03-17T05:41:23.061Z,61.98
2023-03-17T05:43:44.764Z,62.22
2023-03-17T05:46:06.707Z,62.13
2023-03-17T05:48:28.354Z,62.17
2023-03-17T05:50:50.153Z,61.89
2023-03-17T05:53:12.720Z,61.67
2023-03-17T05:55:34.430Z,61.71
2023-03-17T05:57:56.231Z,61.67
2023-03-17T06:00:18.876Z,61.95
2023-03-17T06:02:40.637Z,62.21
2023-03-17T06:05:02.462Z,61.61
2023-03-17T06:07:25.057Z,62.03
2023-03-17T06:09:46.714Z,62.43
2023-03-17T06:12:09.410Z,62.18
2023-03-17T06:14:31.072Z,62.38
2023-03-17T06:16:53.277Z,61.87
2023-03-17T06:19:14.978Z,62.22
2023-03-17T06:21:36.964Z,61.64
2023-03-17T06:23:58.504Z,62.17
2023-03-17T06:26:21.512Z,62.05
2023-03-17T06:28:43.124Z,62.61
2023-03-17T06:31:07.227Z,62.46
2023-03-17T06:33:30.012Z,62.59
2023-03-17T06:35:51.796Z,62.79
2023-03-17T06:38:13.612Z,62.43
2023-03-17T06:40:35.579Z,62.49
2023-03-17T06:42:57.443Z,62.56
2023-03-17T06:45:19.121Z,63.08
2023-03-17T06:47:40.933Z,62.67
2023-03-17T06:50:04.810Z,62.22
2023-03-17T06:52:27.637Z,62.31
2023-03-17T06:54:49.322Z,62.49
2023-03-17T06:57:11.122Z,62.24
2023-03-17T06:59:33.371Z,62.57
2023-03-17T07:01:57.738Z,62.37
2023-03-17T07:04:19.752Z,62.55
2023-03-17T07:06:41.702Z,62.15
2023-03-17T07:09:03.858Z,62.31
2023-03-17T07:11:26.294Z,62.13
2023-03-17T07:13:48.005Z,62.25
2023-03-17T07:16:13.953Z,62.50
2023-03-17T07:18:35.653Z,62.40
2023-03-17T07:21:01.770Z,62.37
2023-03-17T07:23:23.655Z,62.07
2023-03-17T07:25:47.175Z,62.12
2023-03-17T07:28:09.482Z,62.13
2023-03-17T07:30:31.900Z,62.34
2023-03-17T07:32:53.948Z,62.06
2023-03-17T07:35:16.176Z,62.07
2023-03-17T07:37:38.357Z,62.11
2023-03-17T07:40:00.000Z,61.88
2023-03-17T07:42:21.826Z,61.67
2023-03-17T07:44:44.623Z,61.50
2023-03-17T07:47:06.414Z,61.37
2023-03-17T07:49:40.777Z,60.96
2023-03-17T07:52:04.398Z,61.00
2023-03-17T07:54:28.980Z,60.85
2023-03-17T07:56:50.767Z,60.41
2023-03-17T07:59:12.381Z,60.45
2023-03-17T08:01:35.466Z,60.22
2023-03-17T08:03:57.268Z,60.25
2023-03-17T08:06:19.286Z,59.94
2023-03-17T08:08:41.225Z,60.13
2023-03-17T08:11:05.465Z,59.88
2023-03-17T08:13:27.027Z,59.66
2023-03-17T08:15:49.963Z,59.75
2023-03-17T08:18:12.734Z,59.63
2023-03-17T08:20:35.567Z,59.82
2023-03-17T08:22:57.685Z,59.29
2023-03-17T08:25:19.359Z,59.07
2023-03-17T08:27:41.963Z,58.97
2023-03-17T08:30:04.511Z,58.91
2023-03-17T08:32:26.378Z,58.70
2023-03-17T08:34:48.498Z,58.89
2023-03-17T08:37:11.571Z,58.98
2023-03-17T08:39:33.831Z,58.41
2023-03-17T08:41:55.778Z,58.58
2023-03-17T08:44:17.428Z,58.78
2023-03-17T08:46:40.291Z,58.62
2023-03-17T08:49:03.246Z,58.44
2023-03-17T08:51:28.815Z,58.28
2023-03-17T08:53:53.931Z,58.04
2023-03-17T08:56:16.934Z,58.14
2023-03-17T08:58:43.145Z,57.67
2023-03-17T09:01:06.844Z,57.63
2023-03-17T09:03:29.364Z,57.22
2023-03-17T09:05:51.463Z,56.76
2023-03-17T09:08:14.334Z,56.75
2023-03-17T09:10:37.055Z,56.56
2023-03-17T09:13:03.038Z,56.39
2023-03-17T09:15:25.772Z,56.14
2023-03-17T09:17:47.451Z,56.11
2023-03-17T09:20:11.513Z,56.18
2023-03-17T09:22:33.528Z,56.20
2023-03-17T09:24:55.239Z,56.25
2023-03-17T09:27:16.915Z,56.07
2023-03-17T09:29:39.202Z,55.48
2023-03-17T09:32:01.581Z,55.32
2023-03-17T09:34:25.107Z,55.04
2023-03-17T09:36:47.855Z,54.95
2023-03-17T09:39:09.511Z,54.89
2023-03-17T09:41:41.485Z,54.63
2023-03-17T09:44:26.183Z,54.59
2023-03-17T09:47:08.546Z,54.55
2023-03-17T09:49:52.313Z,54.42
2023-03-17T09:52:23.135Z,53.81
2023-03-17T09:54:49.517Z,53.73
2023-03-17T09:57:31.430Z,53.44
2023-03-17T10:00:19.344Z,53.57
2023-03-17T10:02:43.252Z,53.51
2023-03-17T10:05:27.614Z,53.47
2023-03-17T10:08:04.391Z,53.01
2023-03-17T10:10:45.570Z,53.33
2023-03-17T10:13:27.873Z,53.29
2023-03-17T10:16:01.032Z,52.69
2023-03-17T10:18:30.367Z,52.78
2023-03-17T10:20:59.529Z,52.71
2023-03-17T10:23:29.854Z,52.73
2023-03-17T10:25:52.871Z,52.51
2023-03-17T10:28:26.107Z,52.22
2023-03-17T10:30:47.773Z,51.70
2023-03-17T10:33:09.805Z,51.49
2023-03-17T10:35:36.140Z,51.58
2023-03-17T10:38:13.512Z,52.18
2023-03-17T10:40:36.456Z,52.44
2023-03-17T10:43:07.926Z,52.51
2023-03-17T10:45:33.480Z,52.26
2023-03-17T10:47:58.169Z,52.36
2023-03-17T10:50:28.677Z,52.10
2023-03-17T10:53:27.860Z,51.46
2023-03-17T10:55:53.203Z,50.86
2023-03-17T10:58:18.177Z,50.61
2023-03-17T11:01:00.077Z,50.89
2023-03-17T11:03:29.902Z,50.43
2023-03-17T11:06:10.131Z,50.13
2023-03-17T11:08:41.630Z,50.33
2023-03-17T11:11:10.751Z,50.07
2023-03-17T11:13:32.975Z,48.76
2023-03-17T11:16:31.978Z,48.22
2023-03-17T11:19:01.664Z,48.29
2023-03-17T11:21:55.485Z,48.11
2023-03-17T11:24:32.152Z,48.04
2023-03-17T11:27:11.232Z,46.28
2023-03-17T11:30:00.915Z,46.08
2023-03-17T11:32:39.335Z,46.61
2023-03-17T11:35:39.731Z,46.84
2023-03-17T11:38:04.271Z,46.65
2023-03-17T11:40:32.446Z,46.72
2023-03-17T11:43:12.640Z,46.42
2023-03-17T11:45:49.533Z,45.83
2023-03-17T11:48:44.851Z,46.42
2023-03-17T11:51:30.361Z,46.30
2023-03-17T11:54:18.219Z,46.52
2023-03-17T11:56:57.629Z,46.71
2023-03-17T12:00:04.086Z,46.15
2023-03-17T12:02:36.792Z,46.08
2023-03-17T12:05:09.825Z,45.19
2023-03-17T12:07:37.531Z,44.96
2023-03-17T12:10:25.633Z,44.60
2023-03-17T12:12:58.898Z,45.01
2023-03-17T12:15:39.817Z,44.82
2023-03-17T12:18:21.712Z,44.07
2023-03-17T12:20:59.062Z,44.22
2023-03-17T12:23:56.966Z,44.01
2023-03-17T12:26:24.305Z,44.18
2023-03-17T12:29:02.750Z,44.48
2023-03-17T12:31:45.415Z,44.30
2023-03-17T12:34:20.423Z,44.20
2023-03-17T12:36:43.974Z,43.91
2023-03-17T12:39:19.335Z,43.70
2023-03-17T12:42:05.524Z,43.44
2023-03-17T12:45:04.627Z,44.15
2023-03-17T12:47:52.095Z,43.96
2023-03-17T12:50:34.343Z,43.66
2023-03-17T12:53:14.477Z,43.42
2023-03-17T12:55:36.998Z,43.02
2023-03-17T12:58:24.287Z,43.19
2023-03-17T13:00:57.584Z,43.39
2023-03-17T13:03:24.736Z,43.57
2023-03-17T13:05:59.889Z,44.33
2023-03-17T13:08:39.286Z,43.54
2023-03-17T13:11:25.426Z,43.63
2023-03-17T13:14:05.868Z,43.72
2023-03-17T13:16:40.975Z,43.75
2023-03-17T13:19:15.151Z,43.46
2023-03-17T13:21:38.715Z,43.70
2023-03-17T13:24:23.893Z,43.31
2023-03-17T13:26:55.313Z,43.42
2023-03-17T13:29:31.799Z,43.22
2023-03-17T13:32:16.834Z,43.34
2023-03-17T13:35:05.452Z,43.33
2023-03-17T13:37:34.788Z,43.27
2023-03-17T13:40:25.378Z,43.28
2023-03-17T13:42:54.117Z,43.15
2023-03-17T13:45:35.826Z,42.96
2023-03-17T13:48:37.881Z,43.04
2023-03-17T13:51:15.355Z,43.13
2023-03-17T13:53:42.779Z,43.18
2023-03-17T13:56:19.097Z,43.32
2023-03-17T13:59:02.790Z,43.75
2023-03-17T14:01:26.331Z,44.08
2023-03-17T14:03:51.343Z,44.09
2023-03-17T14:06:15.082Z,44.01
2023-03-17T14:08:44.727Z,43.98
2023-03-17T14:11:33.092Z,43.24
2023-03-17T14:14:32.998Z,43.39
2023-03-17T14:17:10.675Z,42.75
2023-03-17T14:19:33.373Z,42.64
2023-03-17T14:22:21.163Z,42.73
2023-03-17T14:24:42.854Z,42.93
2023-03-17T14:27:11.915Z,44.11
2023-03-17T14:29:34.699Z,44.14
2023-03-17T14:32:06.694Z,44.48
2023-03-17T14:34:28.368Z,44.61
2023-03-17T14:36:51.509Z,44.44
2023-03-17T14:39:24.192Z,44.65
2023-03-17T14:41:46.098Z,44.31
2023-03-17T14:44:09.609Z,44.82
2023-03-17T14:46:37.008Z,44.78
2023-03-17T14:49:17.722Z,44.81
2023-03-17T14:51:42.001Z,44.40
2023-03-17T14:54:28.643Z,44.91
2023-03-17T14:57:02.041Z,44.84
2023-03-17T14:59:30.060Z,45.10
2023-03-17T15:01:58.593Z,44.75
2023-03-17T15:04:25.716Z,45.12
2023-03-17T15:06:55.674Z,45.30
2023-03-17T15:09:19.686Z,45.32
2023-03-17T15:11:45.122Z,45.36
2023-03-17T15:14:28.154Z,45.53
2023-03-17T15:16:55.711Z,45.63
2023-03-17T15:19:42.673Z,45.60
2023-03-17T15:22:36.314Z,45.71
2023-03-17T15:25:20.401Z,45.80
2023-03-17T15:27:42.752Z,46.08
2023-03-17T15:30:05.113Z,46.21
2023-03-17T15:32:28.787Z,46.19
2023-03-17T15:34:54.551Z,46.13
2023-03-17T15:37:31.876Z,46.41
2023-03-17T15:39:55.835Z,46.70
2023-03-17T15:42:21.704Z,46.81
2023-03-17T15:44:43.876Z,46.90
2023-03-17T15:47:05.747Z,46.91
2023-03-17T15:49:27.624Z,47.01
2023-03-17T15:51:49.209Z,47.14
2023-03-17T15:54:15.231Z,47.58
2023-03-17T15:56:38.469Z,47.50
2023-03-17T15:59:00.098Z,47.81
2023-03-17T16:01:21.799Z,47.81
2023-03-17T16:03:46.987Z,47.86
2023-03-17T16:06:19.771Z,47.69
2023-03-17T16:08:41.716Z,47.33
2023-03-17T16:11:03.406Z,47.75
2023-03-17T16:13:25.251Z,48.03
2023-03-17T16:15:55.272Z,48.04
2023-03-17T16:18:28.616Z,47.99
2023-03-17T16:20:53.839Z,48.37
2023-03-17T16:23:21.889Z,48.41
2023-03-17T16:25:45.106Z,48.69
2023-03-17T16:28:19.484Z,48.38
2023-03-17T16:30:42.032Z,49.26
2023-03-17T16:33:17.206Z,49.58
2023-03-17T16:35:38.915Z,49.66
2023-03-17T16:38:00.774Z,49.83
2023-03-17T16:40:35.624Z,50.00
2023-03-17T16:42:57.204Z,49.92
2023-03-17T16:45:29.689Z,50.19
2023-03-17T16:47:51.318Z,50.43
2023-03-17T16:50:23.364Z,50.86
2023-03-17T16:52:45.495Z,50.82
2023-03-17T16:55:09.680Z,51.22
2023-03-17T16:57:33.232Z,51.27
2023-03-17T16:59:54.903Z,51.20
2023-03-17T17:02:16.804Z,51.28
2023-03-17T17:04:40.345Z,51.28
2023-03-17T17:07:02.174Z,51.35
2023-03-17T17:09:24.203Z,51.19
2023-03-17T17:11:45.861Z,51.20
2023-03-17T17:14:07.593Z,51.44
2023-03-17T17:16:33.551Z,51.63
2023-03-17T17:18:55.633Z,51.73
2023-03-17T17:21:17.256Z,51.70
2023-03-17T17:23:38.932Z,52.03
2023-03-17T17:26:00.716Z,52.24
2023-03-17T17:28:24.570Z,52.77
2023-03-17T17:30:48.078Z,52.81
2023-03-17T17:33:09.849Z,52.95
2023-03-17T17:35:33.280Z,52.95
2023-03-17T17:37:55.578Z,52.90
2023-03-17T17:40:22.160Z,53.38
2023-03-17T17:42:46.376Z,53.94
2023-03-17T17:45:09.977Z,53.69
2023-03-17T17:47:32.670Z,52.90
2023-03-17T17:49:54.314Z,51.83
2023-03-17T17:52:16.183Z,50.46
2023-03-17T17:54:38.262Z,48.63
2023-03-17T17:57:00.639Z,48.67
2023-03-17T17:59:23.536Z,47.73
2023-03-17T18:01:45.927Z,47.75
2023-03-17T18:04:07.751Z,46.87
2023-03-17T18:06:29.465Z,47.43
2023-03-17T18:08:51.249Z,46.71
2023-03-17T18:11:13.475Z,46.41
2023-03-17T18:13:36.191Z,46.40
2023-03-17T18:15:58.480Z,46.11
2023-03-17T18:18:20.108Z,46.17
2023-03-17T18:20:41.871Z,46.23
2023-03-17T18:23:03.785Z,46.43
2023-03-17T18:25:27.191Z,46.20
2023-03-17T18:27:48.834Z,46.29
2023-03-17T18:30:20.021Z,46.27
2023-03-17T18:32:43.545Z,46.40
2023-03-17T18:35:11.848Z,46.34
2023-03-17T18:37:36.240Z,46.60
2023-03-17T18:40:13.421Z,46.42
2023-03-17T18:42:37.546Z,46.76
2023-03-17T18:44:59.218Z,46.66
2023-03-17T18:47:21.204Z,46.77
2023-03-17T18:49:44.878Z,46.86
2023-03-17T18:52:07.800Z,47.06
2023-03-17T18:54:29.502Z,47.10
2023-03-17T18:56:51.637Z,47.35
2023-03-17T18:59:13.799Z,47.56
2023-03-17T19:01:35.569Z,47.80
2023-03-17T19:03:57.237Z,47.89
2023-03-17T19:06:22.453Z,47.93
2023-03-17T19:08:44.640Z,48.15
2023-03-17T19:11:11.930Z,48.33
2023-03-17T19:13:34.200Z,48.36
2023-03-17T19:15:55.857Z,48.59
2023-03-17T19:18:17.526Z,48.47
2023-03-17T19:20:39.173Z,48.76
2023-03-17T19:23:08.803Z,48.97
2023-03-17T19:25:31.178Z,49.07
2023-03-17T19:27:53.012Z,49.33
2023-03-17T19:30:15.801Z,49.44
2023-03-17T19:32:37.642Z,49.37
2023-03-17T19:34:59.376Z,50.05
2023-03-17T19:37:21.147Z,49.87
2023-03-17T19:39:44.929Z,49.77
2023-03-17T19:42:06.668Z,50.12
2023-03-17T19:44:28.443Z,50.19
2023-03-17T19:46:50.548Z,50.98
2023-03-17T19:49:12.203Z,51.15
2023-03-17T19:51:33.986Z,51.24
2023-03-17T19:53:55.900Z,51.48
2023-03-17T19:56:18.248Z,51.82
2023-03-17T19:58:40.068Z,51.72
2023-03-17T20:01:03.490Z,52.06
2023-03-17T20:03:26.382Z,51.99
2023-03-17T20:05:48.143Z,51.83
2023-03-17T20:08:09.806Z,51.83
2023-03-17T20:10:31.719Z,51.99
2023-03-17T20:12:53.620Z,51.83
2023-03-17T20:15:16.444Z,51.97
2023-03-17T20:17:38.215Z,52.05
2023-03-17T20:20:00.256Z,52.25
2023-03-17T20:22:22.162Z,52.48
2023-03-17T20:24:44.671Z,52.63
2023-03-17T20:27:07.932Z,52.75
2023-03-17T20:29:29.626Z,53.19
2023-03-17T20:31:51.610Z,53.11
2023-03-17T20:34:13.771Z,53.20
2023-03-17T20:36:37.156Z,53.43
2023-03-17T20:38:58.817Z,53.46
2023-03-17T20:41:21.270Z,53.57
2023-03-17T20:43:44.787Z,53.38
2023-03-17T20:46:09.355Z,53.71
2023-03-17T20:48:32.866Z,53.56
2023-03-17T20:50:54.836Z,53.64
2023-03-17T20:53:17.286Z,53.79
2023-03-17T20:55:42.237Z,53.70
2023-03-17T20:58:05.248Z,53.87
2023-03-17T21:00:30.231Z,54.03
2023-03-17T21:02:52.173Z,53.94
2023-03-17T21:05:23.149Z,54.01
2023-03-17T21:07:44.904Z,54.08
2023-03-17T21:10:08.256Z,53.96
2023-03-17T21:12:30.216Z,53.89
2023-03-17T21:14:53.365Z,54.23
2023-03-17T21:17:18.039Z,54.19
2023-03-17T21:19:40.603Z,54.37
2023-03-17T21:22:03.803Z,54.51
2023-03-17T21:24:33.672Z,54.48
2023-03-17T21:26:55.362Z,54.26
2023-03-17T21:29:17.534Z,54.12
2023-03-17T21:31:39.180Z,54.18
2023-03-17T21:34:02.384Z,54.41
2023-03-17T21:36:23.973Z,54.53
2023-03-17T21:38:45.554Z,54.81
2023-03-17T21:41:21.458Z,54.30
2023-03-17T21:43:43.074Z,54.83
2023-03-17T21:46:05.349Z,54.56
2023-03-17T21:48:27.253Z,54.43
2023-03-17T21:50:50.063Z,54.87
2023-03-17T21:53:16.692Z,54.73
2023-03-17T21:55:38.614Z,54.83
2023-03-17T21:58:00.246Z,54.85
2023-03-17T22:00:23.585Z,55.36
2023-03-17T22:02:46.648Z,55.35
2023-03-17T22:05:10.442Z,55.49
2023-03-17T22:07:32.964Z,55.27
2023-03-17T22:09:55.096Z,55.65
2023-03-17T22:12:16.786Z,55.72
2023-03-17T22:14:38.700Z,55.91
2023-03-17T22:17:00.649Z,56.13
2023-03-17T22:19:23.068Z,56.09
2023-03-17T22:21:44.742Z,56.16
2023-03-17T22:24:07.309Z,56.24
2023-03-17T22:26:29.178Z,56.06
2023-03-17T22:28:51.373Z,56.30
2023-03-17T22:31:23.170Z,56.40
2023-03-17T22:33:46.268Z,56.56
2023-03-17T22:36:08.525Z,56.63
2023-03-17T22:38:30.241Z,56.79
2023-03-17T22:41:07.890Z,56.94
2023-03-17T22:43:29.734Z,56.83
2023-03-17T22:45:51.585Z,57.03
2023-03-17T22:48:13.222Z,56.92
2023-03-17T22:50:34.837Z,56.94
2023-03-17T22:52:56.500Z,57.12
2023-03-17T22:55:18.232Z,57.23
2023-03-17T22:57:40.764Z,57.40
2023-03-17T23:00:13.732Z,57.27
2023-03-17T23:02:35.493Z,57.43
2023-03-17T23:04:57.181Z,57.34
2023-03-17T23:07:20.226Z,57.37
2023-03-17T23:09:43.433Z,57.31
2023-03-17T23:12:05.484Z,57.53
2023-03-17T23:14:27.215Z,57.79
2023-03-17T23:16:49.288Z,58.11
2023-03-17T23:19:10.983Z,58.48
2023-03-17T23:21:38.642Z,58.55
2023-03-17T23:24:01.616Z,58.56
2023-03-17T23:26:24.100Z,58.78
2023-03-17T23:28:46.369Z,58.75
2023-03-17T23:31:08.279Z,59.03
2023-03-17T23:33:30.928Z,59.30
2023-03-17T23:35:52.781Z,58.89
2023-03-17T23:38:14.497Z,58.88
2023-03-17T23:40:36.526Z,59.05
2023-03-17T23:42:58.571Z,59.13
2023-03-17T23:45:20.313Z,59.49
2023-03-17T23:47:43.144Z,59.74
2023-03-17T23:50:05.605Z,59.72
2023-03-17T23:52:27.214Z,59.90
2023-03-17T23:54:49.307Z,59.92
2023-03-17T23:57:11.680Z,59.79
2023-03-17T23:59:35.260Z,59.74
